Time;durP1;ratioP1;P1;durP2;ratioP2;P2;SDS_P1;SDS_P2;PMS_P1;PMS_P2;Temp;Humidity;BMP_temperature;BMP_pressure;BME280_temperature;BME280_humidity;BME280_pressure;Samples;Min_cycle;Max_cycle;Signal;HPM_P1;HPM_P2
2023/06/08 00:01:15;;;;;;;9.40;6.60;;;17.50;14.60;;;;;;5043935;28;20517;-64
2023/06/08 00:03:43;;;;;;;9.87;7.20;;;17.40;14.70;;;;;;5044328;28;20466;-63
2023/06/08 00:06:15;;;;;;;9.83;7.37;;;17.50;14.60;;;;;;5048151;28;20477;-63
2023/06/08 00:08:42;;;;;;;9.50;7.20;;;17.40;14.40;;;;;;5048880;28;20470;-63
2023/06/08 00:11:08;;;;;;;10.23;6.60;;;17.40;14.20;;;;;;5049631;28;20976;-64
2023/06/08 00:13:35;;;;;;;11.40;6.90;;;17.40;14.40;;;;;;5044101;22;21080;-66
2023/06/08 00:16:03;;;;;;;13.63;6.53;;;17.40;14.60;;;;;;5015119;28;20479;-66
2023/06/08 00:18:30;;;;;;;9.37;7.00;;;17.40;15.20;;;;;;5009075;28;20551;-66
2023/06/08 00:21:01;;;;;;;14.03;5.87;;;17.40;14.80;;;;;;5014070;28;20473;-66
2023/06/08 00:23:29;;;;;;;9.17;6.80;;;17.40;15.00;;;;;;5017999;28;20900;-66
2023/06/08 00:25:55;;;;;;;9.40;6.23;;;17.30;15.50;;;;;;5018413;28;20491;-66
2023/06/08 00:28:23;;;;;;;8.63;6.73;;;17.30;15.80;;;;;;5018737;28;20467;-66
2023/06/08 00:30:50;;;;;;;9.93;6.50;;;17.30;15.60;;;;;;5010637;28;20475;-66
2023/06/08 00:33:17;;;;;;;10.73;6.73;;;17.20;15.50;;;;;;5014422;28;20451;-66
2023/06/08 00:35:43;;;;;;;9.13;6.87;;;17.20;15.60;;;;;;5018523;28;20866;-66
2023/06/08 00:38:11;;;;;;;10.23;8.27;;;17.10;16.00;;;;;;5013721;28;20486;-66
2023/06/08 00:40:38;;;;;;;9.70;7.23;;;17.10;16.10;;;;;;5012176;28;20464;-66
2023/06/08 00:43:05;;;;;;;11.17;7.90;;;17.10;16.20;;;;;;5008182;28;20846;-66
2023/06/08 00:45:32;;;;;;;15.27;7.63;;;17.10;16.20;;;;;;5012768;28;20903;-67
2023/06/08 00:47:58;;;;;;;11.97;7.40;;;17.00;16.20;;;;;;5011771;28;20494;-67
2023/06/08 00:50:25;;;;;;;14.50;8.00;;;17.00;16.50;;;;;;5008600;28;20471;-67
2023/06/08 00:52:52;;;;;;;9.30;7.60;;;16.90;16.70;;;;;;5017413;28;20468;-67
2023/06/08 00:55:20;;;;;;;11.07;7.47;;;16.90;16.80;;;;;;5010125;28;20476;-67
2023/06/08 00:57:48;;;;;;;12.30;8.20;;;16.80;16.80;;;;;;5013549;28;21085;-67
2023/06/08 01:00:16;;;;;;;12.73;8.13;;;16.70;16.80;;;;;;5014555;28;20467;-67
2023/06/08 01:02:42;;;;;;;15.70;8.63;;;16.70;16.90;;;;;;5008386;28;20938;-67
2023/06/08 01:05:12;;;;;;;12.73;8.47;;;16.70;16.90;;;;;;5009616;28;21313;-66
2023/06/08 01:07:48;;;;;;;10.17;7.40;;;16.60;17.00;;;;;;5006408;28;20486;-67
2023/06/08 01:10:25;;;;;;;11.00;7.80;;;16.60;17.30;;;;;;5008629;28;20893;-67
2023/06/08 01:12:57;;;;;;;12.90;8.10;;;16.50;17.70;;;;;;5002856;28;20475;-67
2023/06/08 01:15:27;;;;;;;9.27;7.20;;;16.50;17.80;;;;;;5000752;28;20491;-68
2023/06/08 01:17:58;;;;;;;11.33;7.97;;;16.50;17.50;;;;;;5003857;28;20495;-67
2023/06/08 01:20:37;;;;;;;13.17;8.20;;;16.50;17.30;;;;;;5005943;28;21004;-67
2023/06/08 01:23:20;;;;;;;11.50;8.37;;;16.40;17.90;;;;;;5004948;28;20467;-67
2023/06/08 01:25:50;;;;;;;14.93;8.80;;;16.50;17.60;;;;;;5005779;28;20472;-66
2023/06/08 01:28:17;;;;;;;11.20;7.77;;;16.40;17.70;;;;;;5003649;28;20466;-67
2023/06/08 01:30:45;;;;;;;9.80;7.50;;;16.40;17.70;;;;;;5006648;28;20483;-67
2023/06/08 01:33:14;;;;;;;10.83;7.80;;;16.40;17.60;;;;;;5007972;28;20475;-67
2023/06/08 01:35:42;;;;;;;12.80;7.90;;;16.40;17.50;;;;;;5005505;28;20490;-67
2023/06/08 01:38:15;;;;;;;14.70;8.53;;;16.40;17.60;;;;;;5006766;28;20852;-67
2023/06/08 01:40:46;;;;;;;11.00;8.13;;;16.40;17.50;;;;;;5006359;28;20467;-67
2023/06/08 01:43:15;;;;;;;12.27;7.90;;;16.40;17.60;;;;;;5007366;28;20488;-67
2023/06/08 01:45:47;;;;;;;10.27;8.27;;;16.30;18.10;;;;;;5006882;28;20463;-67
2023/06/08 01:48:15;;;;;;;14.43;8.20;;;16.20;18.10;;;;;;5004060;28;20519;-67
2023/06/08 01:50:44;;;;;;;9.20;8.03;;;16.20;18.50;;;;;;5006479;28;20475;-67
2023/06/08 01:53:11;;;;;;;10.53;8.67;;;16.20;18.20;;;;;;5005200;28;20468;-67
2023/06/08 01:55:38;;;;;;;11.10;8.90;;;16.20;17.90;;;;;;5006568;28;20570;-67
2023/06/08 01:58:05;;;;;;;11.47;8.73;;;16.10;18.30;;;;;;5004592;28;20488;-67
2023/06/08 02:00:33;;;;;;;11.13;9.27;;;16.10;18.30;;;;;;5006395;28;20474;-67
2023/06/08 02:02:59;;;;;;;9.50;7.90;;;16.00;19.20;;;;;;5007092;28;20471;-67
2023/06/08 02:05:26;;;;;;;10.63;8.30;;;16.00;18.40;;;;;;5005613;28;20456;-67
2023/06/08 02:07:53;;;;;;;13.23;8.47;;;16.00;18.70;;;;;;5006221;28;20479;-67
2023/06/08 02:10:20;;;;;;;10.43;7.47;;;15.90;18.70;;;;;;5002364;28;20464;-67
2023/06/08 02:12:46;;;;;;;11.17;8.40;;;15.90;18.80;;;;;;5007333;28;20464;-67
2023/06/08 02:15:13;;;;;;;11.00;7.70;;;15.80;18.70;;;;;;5007138;28;20483;-67
2023/06/08 02:17:42;;;;;;;12.23;7.63;;;15.80;18.80;;;;;;5004652;28;20495;-67
2023/06/08 02:20:09;;;;;;;12.27;7.80;;;15.70;19.10;;;;;;5003483;28;20466;-67
2023/06/08 02:22:37;;;;;;;11.60;8.93;;;15.60;19.20;;;;;;5006097;28;20463;-67
2023/06/08 02:25:04;;;;;;;11.93;9.33;;;15.60;19.60;;;;;;5004859;28;20466;-66
2023/06/08 02:27:35;;;;;;;11.30;9.50;;;15.50;20.00;;;;;;5007359;28;20585;-66
2023/06/08 02:30:03;;;;;;;13.77;9.00;;;15.40;20.40;;;;;;5005835;28;20468;-66
2023/06/08 02:32:32;;;;;;;12.23;9.97;;;15.40;20.70;;;;;;5006679;28;20530;-67
2023/06/08 02:35:01;;;;;;;16.83;10.40;;;15.40;20.90;;;;;;5002283;28;21391;-67
2023/06/08 02:37:28;;;;;;;12.20;10.30;;;15.30;21.30;;;;;;4996640;28;20863;-67
2023/06/08 02:39:54;;;;;;;12.30;10.10;;;15.30;21.50;;;;;;5001379;28;20472;-66
2023/06/08 02:42:21;;;;;;;11.50;9.40;;;15.30;22.00;;;;;;5006687;28;20542;-66
2023/06/08 02:44:48;;;;;;;12.63;9.80;;;15.30;22.40;;;;;;5005449;28;21350;-67
2023/06/08 02:47:17;;;;;;;11.60;9.30;;;15.20;22.20;;;;;;5006167;28;20487;-67
2023/06/08 02:49:44;;;;;;;11.67;9.53;;;15.20;22.10;;;;;;5005686;28;20471;-66
2023/06/08 02:52:12;;;;;;;12.37;9.13;;;15.20;22.30;;;;;;5002069;28;20479;-67
2023/06/08 02:54:39;;;;;;;12.03;9.43;;;15.10;22.50;;;;;;5001784;28;20960;-66
2023/06/08 02:57:06;;;;;;;14.50;10.07;;;15.10;22.70;;;;;;5004358;28;20658;-66
2023/06/08 02:59:33;;;;;;;15.73;9.27;;;15.10;22.50;;;;;;5003860;28;20468;-67
2023/06/08 03:02:00;;;;;;;12.60;10.13;;;15.10;22.60;;;;;;5009585;28;20483;-67
2023/06/08 03:04:28;;;;;;;14.43;10.67;;;15.10;22.20;;;;;;5006398;28;20471;-67
2023/06/08 03:06:55;;;;;;;11.97;9.50;;;15.10;22.20;;;;;;5003171;28;21102;-67
2023/06/08 03:09:24;;;;;;;12.40;9.20;;;15.10;22.20;;;;;;5010959;28;20467;-67
2023/06/08 03:11:51;;;;;;;15.40;10.10;;;15.10;21.90;;;;;;5005547;28;20467;-67
2023/06/08 03:14:18;;;;;;;15.17;10.27;;;15.10;21.80;;;;;;5006014;28;20851;-67
2023/06/08 03:16:46;;;;;;;11.47;9.80;;;15.10;22.30;;;;;;5003721;28;20495;-67
2023/06/08 03:19:13;;;;;;;12.97;11.03;;;15.10;22.40;;;;;;5005603;28;20495;-67
2023/06/08 03:21:41;;;;;;;11.03;9.67;;;15.10;22.40;;;;;;5005516;28;20455;-67
2023/06/08 03:24:08;;;;;;;12.20;10.20;;;15.10;22.20;;;;;;5006344;28;20459;-67
2023/06/08 03:26:36;;;;;;;14.27;11.40;;;15.00;22.20;;;;;;5005406;28;21018;-67
2023/06/08 03:29:03;;;;;;;12.00;10.70;;;14.90;22.40;;;;;;5003333;28;20468;-67
2023/06/08 03:31:36;;;;;;;11.80;9.87;;;14.90;22.90;;;;;;5004098;28;20467;-67
2023/06/08 03:34:03;;;;;;;12.70;10.77;;;14.90;23.10;;;;;;5007253;28;20467;-67
2023/06/08 03:36:33;;;;;;;16.27;11.37;;;14.80;23.20;;;;;;5006091;28;20490;-67
2023/06/08 03:39:00;;;;;;;13.50;11.20;;;14.80;23.50;;;;;;5003852;28;20466;-67
2023/06/08 03:41:27;;;;;;;15.10;11.60;;;14.80;23.50;;;;;;5006442;28;20487;-66
2023/06/08 03:43:55;;;;;;;13.60;11.63;;;14.80;23.60;;;;;;5003296;28;20499;-66
2023/06/08 03:46:22;;;;;;;15.27;12.07;;;14.80;24.30;;;;;;5003522;28;20483;-67
2023/06/08 03:48:49;;;;;;;14.67;12.57;;;14.80;24.40;;;;;;5003179;28;20464;-66
2023/06/08 03:51:16;;;;;;;16.37;12.00;;;14.80;24.40;;;;;;5002643;28;21009;-67
2023/06/08 03:53:43;;;;;;;12.43;11.10;;;14.80;24.60;;;;;;5004744;28;20470;-67
2023/06/08 03:56:09;;;;;;;13.27;11.47;;;14.80;24.60;;;;;;4999372;28;20479;-67
2023/06/08 03:58:36;;;;;;;13.80;11.87;;;14.80;24.60;;;;;;5002995;28;20474;-67
2023/06/08 04:01:04;;;;;;;13.40;10.77;;;14.80;24.70;;;;;;5003954;28;20484;-67
2023/06/08 04:03:31;;;;;;;13.70;11.27;;;14.80;24.80;;;;;;5005606;28;20810;-67
2023/06/08 04:05:58;;;;;;;13.40;10.87;;;14.90;24.60;;;;;;5004192;28;20463;-67
2023/06/08 04:08:26;;;;;;;12.23;10.57;;;14.90;24.70;;;;;;5003770;28;20559;-67
2023/06/08 04:10:53;;;;;;;12.03;10.37;;;15.00;24.40;;;;;;5003582;28;20469;-66
2023/06/08 04:13:20;;;;;;;15.83;11.60;;;15.00;24.40;;;;;;5003433;28;20991;-66
2023/06/08 04:15:46;;;;;;;12.67;10.50;;;15.10;24.40;;;;;;5003643;28;20578;-67
2023/06/08 04:18:14;;;;;;;13.33;11.30;;;15.10;24.20;;;;;;5003371;28;20921;-66
2023/06/08 04:20:41;;;;;;;14.60;11.20;;;15.20;24.00;;;;;;5006271;28;20463;-66
2023/06/08 04:23:11;;;;;;;14.33;11.60;;;15.30;24.00;;;;;;5006351;28;20470;-67
2023/06/08 04:25:37;;;;;;;13.67;11.37;;;15.30;24.20;;;;;;5005785;28;21168;-67
2023/06/08 04:28:04;;;;;;;14.70;10.67;;;15.40;23.90;;;;;;5006431;28;20490;-67
2023/06/08 04:30:31;;;;;;;13.10;10.50;;;15.70;24.30;;;;;;5006833;28;20470;-67
2023/06/08 04:32:59;;;;;;;13.33;9.90;;;16.80;23.20;;;;;;5006998;28;21026;-67
2023/06/08 04:35:27;;;;;;;15.67;10.13;;;18.00;19.60;;;;;;5007882;28;20479;-67
2023/06/08 04:37:54;;;;;;;12.77;9.77;;;19.00;16.30;;;;;;5006812;28;20534;-67
2023/06/08 04:40:21;;;;;;;12.80;9.33;;;19.80;14.00;;;;;;5011115;28;20471;-67
2023/06/08 04:42:49;;;;;;;10.53;9.10;;;20.50;12.20;;;;;;5008945;28;20959;-67
2023/06/08 04:45:18;;;;;;;12.80;9.17;;;21.30;10.70;;;;;;5006955;28;21174;-67
2023/06/08 04:47:45;;;;;;;13.60;9.60;;;22.00;9.10;;;;;;5010136;28;20490;-67
2023/06/08 04:50:12;;;;;;;11.40;9.60;;;22.70;7.40;;;;;;5007449;28;20471;-67
2023/06/08 04:52:41;;;;;;;10.23;9.00;;;23.10;6.50;;;;;;5005793;28;20464;-67
2023/06/08 04:55:09;;;;;;;11.43;9.60;;;22.60;6.60;;;;;;5005986;28;20467;-67
2023/06/08 04:57:36;;;;;;;24.20;9.83;;;22.50;7.30;;;;;;5007703;28;20562;-67
2023/06/08 05:00:04;;;;;;;11.20;9.47;;;23.30;6.30;;;;;;5011185;28;20471;-68
2023/06/08 05:02:31;;;;;;;10.33;8.27;;;24.30;4.80;;;;;;5008846;28;20574;-67
2023/06/08 05:04:58;;;;;;;10.90;9.37;;;25.30;3.20;;;;;;5007518;28;20968;-67
2023/06/08 05:07:25;;;;;;;9.20;7.30;;;26.20;1.20;;;;;;5007524;28;20483;-68
2023/06/08 05:09:54;;;;;;;10.13;7.87;;;27.10;1.00;;;;;;5011325;28;20472;-68
2023/06/08 05:12:21;;;;;;;10.37;8.50;;;27.80;1.00;;;;;;5005560;28;20471;-68
2023/06/08 05:14:47;;;;;;;10.47;8.70;;;28.50;1.00;;;;;;5005059;28;20464;-68
2023/06/08 05:17:14;;;;;;;14.63;12.20;;;29.20;1.00;;;;;;5005720;28;21027;-68
2023/06/08 05:19:41;;;;;;;10.23;8.70;;;29.90;1.00;;;;;;5009116;28;20503;-68
2023/06/08 05:22:07;;;;;;;10.13;7.60;;;30.60;1.00;;;;;;5009990;28;20466;-68
2023/06/08 05:24:34;;;;;;;9.10;7.50;;;31.20;1.00;;;;;;5009061;28;20460;-68
2023/06/08 05:27:02;;;;;;;9.90;8.50;;;31.90;1.00;;;;;;5009470;28;20487;-68
2023/06/08 05:29:29;;;;;;;10.43;8.03;;;32.30;1.00;;;;;;5009242;28;20475;-68
2023/06/08 05:31:56;;;;;;;8.73;7.30;;;32.80;1.00;;;;;;5008692;28;21198;-68
2023/06/08 05:34:22;;;;;;;9.10;7.60;;;33.30;1.00;;;;;;5006122;28;20468;-68
2023/06/08 05:36:49;;;;;;;8.87;7.97;;;33.80;1.00;;;;;;5011814;28;20480;-68
2023/06/08 05:39:16;;;;;;;10.63;7.53;;;34.40;1.00;;;;;;5012379;28;20814;-68
2023/06/08 05:41:43;;;;;;;8.10;6.90;;;34.90;1.00;;;;;;5006077;28;20482;-69
2023/06/08 05:44:11;;;;;;;9.23;6.90;;;35.30;1.00;;;;;;5008512;28;20467;-68
2023/06/08 05:46:37;;;;;;;9.10;6.93;;;35.70;1.00;;;;;;5005536;28;20483;-69
2023/06/08 05:49:05;;;;;;;7.70;6.63;;;36.40;1.00;;;;;;5012316;28;20471;-68
2023/06/08 05:51:32;;;;;;;8.77;7.67;;;37.00;1.00;;;;;;5008965;28;20498;-68
2023/06/08 05:53:58;;;;;;;8.60;7.00;;;37.60;1.00;;;;;;5010069;28;20468;-67
2023/06/08 05:56:26;;;;;;;8.60;7.23;;;38.30;1.00;;;;;;5007786;28;20502;-66
2023/06/08 05:58:53;;;;;;;9.10;7.70;;;38.90;1.00;;;;;;5005288;28;20488;-67
2023/06/08 06:01:21;;;;;;;8.50;7.60;;;39.50;1.00;;;;;;5009608;28;20479;-67
2023/06/08 06:03:48;;;;;;;7.97;7.17;;;39.90;1.00;;;;;;5007271;28;20826;-68
2023/06/08 06:06:16;;;;;;;9.83;7.20;;;40.50;1.00;;;;;;5007696;28;20486;-67
2023/06/08 06:08:43;;;;;;;10.20;7.70;;;41.10;1.00;;;;;;5006823;28;20459;-67
2023/06/08 06:11:09;;;;;;;8.33;6.93;;;41.50;1.00;;;;;;5012023;28;20526;-67
2023/06/08 06:13:36;;;;;;;8.93;7.43;;;41.90;1.00;;;;;;5007657;28;20472;-67
2023/06/08 06:16:03;;;;;;;9.50;7.67;;;42.30;1.00;;;;;;5004301;28;20486;-67
2023/06/08 06:18:31;;;;;;;8.97;7.97;;;42.70;1.00;;;;;;5008943;28;22542;-68
2023/06/08 06:20:57;;;;;;;9.17;7.10;;;43.10;1.00;;;;;;5009248;28;20467;-67
2023/06/08 06:23:24;;;;;;;8.53;7.63;;;43.60;1.00;;;;;;5005733;28;20479;-68
2023/06/08 06:25:51;;;;;;;9.07;7.30;;;43.70;1.00;;;;;;5004843;28;21349;-68
2023/06/08 06:28:17;;;;;;;8.97;8.03;;;44.10;1.00;;;;;;5007184;28;20490;-69
2023/06/08 06:30:44;;;;;;;9.10;8.00;;;44.50;1.00;;;;;;5009373;28;20475;-68
2023/06/08 06:33:11;;;;;;;7.30;6.60;;;44.80;1.00;;;;;;5013973;28;20962;-67
2023/06/08 06:35:39;;;;;;;10.00;8.27;;;45.00;1.00;;;;;;5010051;28;20468;-68
2023/06/08 06:38:06;;;;;;;8.47;7.53;;;45.30;1.00;;;;;;5005893;28;20483;-68
2023/06/08 06:40:32;;;;;;;7.77;6.97;;;45.60;1.00;;;;;;5006718;28;20948;-68
2023/06/08 06:42:59;;;;;;;8.37;7.50;;;46.10;1.00;;;;;;5006786;28;20471;-68
2023/06/08 06:45:26;;;;;;;7.77;6.97;;;46.40;1.00;;;;;;5009105;28;20502;-68
2023/06/08 06:47:53;;;;;;;8.50;7.10;;;46.80;1.00;;;;;;5001719;28;20499;-69
2023/06/08 06:50:20;;;;;;;11.53;7.30;;;47.20;1.00;;;;;;5005356;28;20459;-68
2023/06/08 06:52:48;;;;;;;9.47;6.57;;;47.60;1.00;;;;;;5003883;28;20519;-68
2023/06/08 06:55:14;;;;;;;8.00;6.50;;;48.00;1.00;;;;;;5006165;28;20473;-68
2023/06/08 06:57:41;;;;;;;10.87;7.00;;;48.40;1.00;;;;;;5007168;28;20859;-71
2023/06/08 07:00:10;;;;;;;7.80;6.77;;;48.70;1.00;;;;;;5004965;28;20494;-68
2023/06/08 07:02:38;;;;;;;8.03;6.40;;;49.10;1.00;;;;;;5005100;28;20476;-68
2023/06/08 07:05:06;;;;;;;9.47;7.20;;;49.40;1.00;;;;;;5006732;28;21117;-68
2023/06/08 07:07:33;;;;;;;8.00;7.30;;;49.70;1.00;;;;;;5006397;28;20483;-68
2023/06/08 07:10:01;;;;;;;7.77;6.50;;;49.80;1.00;;;;;;5004339;28;20479;-68
2023/06/08 07:12:28;;;;;;;7.80;6.93;;;50.10;1.00;;;;;;5006611;28;20475;-68
2023/06/08 07:14:55;;;;;;;8.40;6.70;;;50.50;1.00;;;;;;5003369;28;20467;-68
2023/06/08 07:17:22;;;;;;;7.50;6.80;;;50.70;1.00;;;;;;5001861;28;20498;-68
2023/06/08 07:19:51;;;;;;;7.07;6.37;;;51.00;1.00;;;;;;5001193;28;20500;-68
2023/06/08 07:22:18;;;;;;;8.17;6.37;;;51.20;1.00;;;;;;4998607;28;20490;-73
2023/06/08 07:24:44;;;;;;;7.17;6.47;;;51.50;1.00;;;;;;4999907;28;20484;-73
2023/06/08 07:27:13;;;;;;;7.80;7.00;;;51.70;1.00;;;;;;5000333;28;20547;-72
2023/06/08 07:29:39;;;;;;;7.30;6.60;;;51.70;1.00;;;;;;5004017;28;20485;-73
2023/06/08 07:32:07;;;;;;;7.50;6.80;;;52.00;1.00;;;;;;5004527;28;20476;-73
2023/06/08 07:37:12;;;;;;;7.33;6.53;;;52.90;1.00;;;;;;5017635;28;20490;-66
2023/06/08 07:39:39;;;;;;;7.90;6.63;;;52.60;1.00;;;;;;5024011;28;20955;-66
2023/06/08 07:42:06;;;;;;;7.30;6.37;;;53.00;1.00;;;;;;5022141;28;20470;-66
2023/06/08 07:44:34;;;;;;;7.57;6.10;;;53.40;1.00;;;;;;5028473;28;20465;-66
2023/06/08 07:47:01;;;;;;;7.63;6.17;;;53.70;1.00;;;;;;5023225;28;20482;-66
2023/06/08 07:49:29;;;;;;;9.30;6.73;;;53.90;1.00;;;;;;5025879;28;21042;-67
2023/06/08 07:51:56;;;;;;;6.77;6.07;;;54.00;1.00;;;;;;5025100;28;20494;-66
2023/06/08 07:54:23;;;;;;;8.67;5.73;;;54.20;1.00;;;;;;5027264;28;20548;-66
2023/06/08 07:56:50;;;;;;;8.50;6.37;;;54.60;1.00;;;;;;5027883;28;20486;-66
2023/06/08 07:59:17;;;;;;;7.77;6.77;;;54.70;1.00;;;;;;5034168;28;20885;-65
2023/06/08 08:01:45;;;;;;;7.50;6.17;;;54.60;1.00;;;;;;5031756;28;21005;-65
2023/06/08 08:04:12;;;;;;;6.43;5.63;;;54.30;1.00;;;;;;5024147;28;20462;-66
2023/06/08 08:06:39;;;;;;;6.00;5.30;;;53.90;1.00;;;;;;5021408;28;20831;-66
2023/06/08 08:09:06;;;;;;;15.23;6.73;;;54.60;1.00;;;;;;5023805;28;20476;-66
2023/06/08 08:11:33;;;;;;;8.10;6.13;;;55.00;1.00;;;;;;5022009;28;20470;-65
2023/06/08 08:14:00;;;;;;;6.90;6.20;;;55.00;1.00;;;;;;5025253;28;20471;-66
2023/06/08 08:16:26;;;;;;;6.60;6.00;;;54.80;1.00;;;;;;5025531;28;20486;-65
2023/06/08 08:18:55;;;;;;;9.40;5.93;;;54.70;1.00;;;;;;5016610;28;20474;-65
2023/06/08 08:21:21;;;;;;;6.83;5.83;;;55.00;1.00;;;;;;5024030;28;20470;-66
2023/06/08 08:23:49;;;;;;;6.63;5.93;;;55.30;1.00;;;;;;5029335;28;20969;-66
2023/06/08 08:26:15;;;;;;;7.17;5.90;;;55.30;1.00;;;;;;5023915;28;20545;-66
2023/06/08 08:28:44;;;;;;;6.40;5.80;;;55.70;1.00;;;;;;5032539;28;20469;-66
2023/06/08 08:31:11;;;;;;;7.40;5.10;;;55.60;1.00;;;;;;5030432;28;20477;-65
2023/06/08 08:33:38;;;;;;;6.30;5.57;;;55.80;1.00;;;;;;5025765;28;20467;-65
2023/06/08 08:36:07;;;;;;;9.13;5.50;;;56.00;1.00;;;;;;5026877;28;21193;-66
2023/06/08 08:38:33;;;;;;;5.73;4.80;;;56.30;1.00;;;;;;5021838;28;21118;-65
2023/06/08 08:41:05;;;;;;;11.23;5.70;;;56.60;1.00;;;;;;5021060;28;20575;-65
2023/06/08 08:43:38;;;;;;;5.80;5.20;;;56.80;1.00;;;;;;5030063;28;20203;-66
2023/06/08 08:46:08;;;;;;;6.53;5.07;;;57.10;1.00;;;;;;5026998;28;20228;-66
2023/06/08 08:48:40;;;;;;;6.55;5.50;;;57.20;1.00;;;;;;5025589;28;20200;-66
2023/06/08 08:51:12;;;;;;;7.35;5.47;;;57.50;1.00;;;;;;5022402;28;20212;-65
2023/06/08 08:53:40;;;;;;;6.65;5.10;;;57.50;1.00;;;;;;5024480;28;20207;-66
2023/06/08 08:56:07;;;;;;;5.53;4.93;;;57.20;1.00;;;;;;5025507;28;20679;-66
2023/06/08 08:58:35;;;;;;;7.75;5.45;;;57.20;1.00;;;;;;5023948;28;20231;-66
2023/06/08 09:01:03;;;;;;;5.68;5.18;;;57.20;1.00;;;;;;5027681;28;20307;-66
2023/06/08 09:03:29;;;;;;;7.75;5.53;;;57.60;1.00;;;;;;5022336;28;20287;-65
2023/06/08 09:05:56;;;;;;;6.05;5.45;;;57.70;1.00;;;;;;5028921;28;20270;-65
2023/06/08 09:08:25;;;;;;;6.75;5.20;;;57.30;1.00;;;;;;5024039;28;20200;-65
2023/06/08 09:11:03;;;;;;;8.57;5.63;;;56.90;1.00;;;;;;5024150;28;20582;-66
2023/06/08 09:13:30;;;;;;;6.15;5.45;;;57.00;1.00;;;;;;5027109;28;20207;-66
2023/06/08 09:16:07;;;;;;;6.90;6.17;;;56.20;1.00;;;;;;5020354;28;20352;-65
2023/06/08 09:18:35;;;;;;;6.83;6.13;;;55.80;1.00;;;;;;5027196;28;20230;-66
2023/06/08 09:21:19;;;;;;;6.17;5.53;;;55.20;1.00;;;;;;5022213;28;20747;-65
2023/06/08 09:24:03;;;;;;;5.80;4.97;;;53.80;1.00;;;;;;5017300;28;20467;-66
2023/06/08 09:26:32;;;;;;;7.80;6.40;;;51.70;1.00;;;;;;5022432;28;20577;-67
2023/06/08 09:29:01;;;;;;;6.37;5.77;;;49.50;1.00;;;;;;5017558;28;20645;-66
2023/06/08 09:31:29;;;;;;;6.60;5.90;;;47.40;1.00;;;;;;5018157;28;20987;-66
2023/06/08 09:34:06;;;;;;;6.40;5.67;;;45.70;1.00;;;;;;5015996;28;20483;-65
2023/06/08 09:36:35;;;;;;;7.37;6.30;;;44.30;1.00;;;;;;5022090;28;20552;-65
2023/06/08 09:39:05;;;;;;;8.47;6.00;;;43.00;1.00;;;;;;5018983;28;21692;-67
2023/06/08 09:41:33;;;;;;;7.70;6.50;;;41.70;1.00;;;;;;5023530;28;20485;-67
2023/06/08 09:44:00;;;;;;;8.00;6.57;;;40.60;1.00;;;;;;5024479;28;20464;-66
2023/06/08 09:46:34;;;;;;;8.90;6.20;;;39.40;1.00;;;;;;5020806;28;20515;-67
2023/06/08 09:49:03;;;;;;;7.40;5.53;;;38.60;1.00;;;;;;5027947;28;20457;-66
2023/06/08 09:51:33;;;;;;;7.03;5.60;;;38.00;1.00;;;;;;5026108;28;20509;-64
2023/06/08 09:54:01;;;;;;;7.33;5.83;;;37.40;1.00;;;;;;5029451;28;20463;-64
2023/06/08 09:56:30;;;;;;;8.67;6.77;;;36.90;1.00;;;;;;5026652;28;20493;-66
2023/06/08 09:58:58;;;;;;;8.30;6.20;;;36.40;1.00;;;;;;5027678;28;20475;-66
2023/06/08 10:01:32;;;;;;;6.47;5.33;;;35.90;1.00;;;;;;5018756;28;20479;-64
2023/06/08 10:04:02;;;;;;;9.07;5.10;;;35.50;1.00;;;;;;5024952;28;20465;-65
2023/06/08 10:06:31;;;;;;;8.30;5.30;;;35.20;1.00;;;;;;5027335;28;20482;-65
2023/06/08 10:09:01;;;;;;;8.27;5.80;;;34.90;1.00;;;;;;5023111;28;20455;-65
2023/06/08 10:11:29;;;;;;;6.90;5.23;;;34.70;1.00;;;;;;5024595;28;20470;-65
2023/06/08 10:13:57;;;;;;;6.80;5.30;;;34.50;1.00;;;;;;5033245;28;20454;-66
2023/06/08 10:16:25;;;;;;;6.60;4.50;;;34.30;1.00;;;;;;5028960;28;20483;-65
2023/06/08 10:18:53;;;;;;;7.30;5.50;;;34.10;1.00;;;;;;5021484;28;20846;-64
2023/06/08 10:21:21;;;;;;;7.33;5.20;;;33.60;1.00;;;;;;5028327;28;20470;-64
2023/06/08 10:23:49;;;;;;;7.47;4.60;;;33.10;1.00;;;;;;5022751;28;20463;-64
2023/06/08 10:26:17;;;;;;;9.23;5.63;;;32.60;1.00;;;;;;5027037;28;20488;-66
2023/06/08 10:29:08;;;;;;;8.43;5.80;;;32.00;1.00;;;;;;5019788;28;20563;-66
2023/06/08 10:31:36;;;;;;;7.03;5.00;;;31.70;1.00;;;;;;5031990;28;20470;-64
2023/06/08 10:34:09;;;;;;;7.07;5.43;;;31.30;1.00;;;;;;5029697;28;20577;-65
2023/06/08 10:36:39;;;;;;;9.70;5.23;;;31.10;1.00;;;;;;5023513;28;20483;-65
2023/06/08 10:39:10;;;;;;;7.83;4.53;;;31.10;1.00;;;;;;5025842;28;20476;-65
2023/06/08 10:41:41;;;;;;;6.67;4.37;;;30.90;1.00;;;;;;5025574;28;20599;-65
2023/06/08 10:44:24;;;;;;;9.37;5.27;;;30.70;1.00;;;;;;5024249;28;20469;-65
2023/06/08 10:46:59;;;;;;;6.43;4.73;;;30.40;1.00;;;;;;5020791;28;20487;-66
2023/06/08 10:49:29;;;;;;;6.27;4.60;;;30.20;1.00;;;;;;5025108;28;20557;-65
2023/06/08 10:51:56;;;;;;;8.90;5.53;;;29.90;1.00;;;;;;5031100;28;20883;-68
2023/06/08 10:54:24;;;;;;;6.60;4.63;;;29.70;1.00;;;;;;5021403;28;20464;-65
2023/06/08 10:56:55;;;;;;;6.97;4.83;;;29.50;1.00;;;;;;5019799;28;20482;-66
2023/06/08 10:59:34;;;;;;;8.83;5.67;;;29.40;1.00;;;;;;5028166;28;20482;-64
2023/06/08 11:02:02;;;;;;;7.20;5.17;;;29.30;1.00;;;;;;5025270;28;21016;-63
2023/06/08 11:04:30;;;;;;;8.83;5.40;;;29.30;1.00;;;;;;5020147;28;20568;-65
2023/06/08 11:07:01;;;;;;;7.10;5.10;;;29.30;1.00;;;;;;5026257;28;20488;-65
2023/06/08 11:09:30;;;;;;;7.10;4.77;;;29.50;1.00;;;;;;5025412;28;20490;-65
2023/06/08 11:11:57;;;;;;;7.37;4.60;;;29.60;1.00;;;;;;5030223;28;20466;-66
2023/06/08 11:14:24;;;;;;;7.43;5.17;;;29.50;1.00;;;;;;5031309;28;20802;-66
2023/06/08 11:16:53;;;;;;;8.10;4.90;;;29.50;1.00;;;;;;5027726;28;20495;-66
2023/06/08 11:19:21;;;;;;;7.10;5.20;;;29.50;1.00;;;;;;5024371;28;20483;-66
2023/06/08 11:21:51;;;;;;;7.73;4.50;;;29.60;1.00;;;;;;5025064;28;20585;-66
2023/06/08 11:24:18;;;;;;;7.13;4.97;;;29.60;1.00;;;;;;5027537;28;20462;-67
2023/06/08 11:26:45;;;;;;;7.43;4.90;;;29.40;1.00;;;;;;5024675;28;20505;-65
2023/06/08 11:29:13;;;;;;;7.03;5.30;;;29.30;1.00;;;;;;5024812;28;20551;-65
2023/06/08 11:31:41;;;;;;;8.80;6.57;;;29.00;1.00;;;;;;5024732;28;20497;-66
2023/06/08 11:34:13;;;;;;;8.10;5.50;;;28.90;1.00;;;;;;5028580;28;20459;-67
2023/06/08 11:36:42;;;;;;;7.33;4.83;;;28.80;1.00;;;;;;5023850;28;20490;-66
2023/06/08 11:39:09;;;;;;;6.03;4.60;;;28.80;1.00;;;;;;5022646;28;20567;-65
2023/06/08 11:41:35;;;;;;;7.70;5.03;;;28.90;1.00;;;;;;5027751;28;20474;-64
2023/06/08 11:44:02;;;;;;;9.03;4.50;;;29.10;1.00;;;;;;5025856;28;20466;-67
2023/06/08 11:46:30;;;;;;;6.80;4.50;;;29.20;1.00;;;;;;5026450;28;20487;-68
2023/06/08 11:49:10;;;;;;;6.30;4.30;;;29.30;1.00;;;;;;5032896;28;20451;-67
2023/06/08 11:51:47;;;;;;;7.00;4.90;;;29.40;1.00;;;;;;5022276;28;20552;-67
2023/06/08 11:54:15;;;;;;;7.40;5.07;;;29.60;1.00;;;;;;5025626;28;21189;-68
2023/06/08 11:56:45;;;;;;;6.90;4.73;;;29.70;1.00;;;;;;5025469;28;20482;-69
2023/06/08 11:59:12;;;;;;;6.50;4.77;;;29.80;1.00;;;;;;5029186;28;20493;-67
2023/06/08 12:01:54;;;;;;;8.07;4.80;;;29.90;1.00;;;;;;5027438;28;20484;-67
2023/06/08 12:04:29;;;;;;;7.90;4.60;;;30.10;1.00;;;;;;5028318;28;20470;-67
2023/06/08 12:06:56;;;;;;;6.10;4.17;;;30.20;1.00;;;;;;5031289;28;22046;-67
2023/06/08 12:09:23;;;;;;;7.83;4.60;;;30.30;1.00;;;;;;5029571;28;20462;-66
2023/06/08 12:11:50;;;;;;;6.97;4.20;;;30.40;1.00;;;;;;5029947;28;21259;-68
2023/06/08 12:14:17;;;;;;;7.03;4.73;;;30.50;1.00;;;;;;5029405;28;20466;-67
2023/06/08 12:16:44;;;;;;;6.20;4.23;;;30.50;1.00;;;;;;5024125;28;20945;-66
2023/06/08 12:19:11;;;;;;;7.10;5.30;;;30.70;1.00;;;;;;5026684;28;20962;-67
2023/06/08 12:21:41;;;;;;;7.67;5.07;;;30.70;1.00;;;;;;5029271;28;20467;-68
2023/06/08 12:24:08;;;;;;;8.20;4.27;;;30.80;1.00;;;;;;5026498;28;20501;-67
2023/06/08 12:26:35;;;;;;;6.90;4.53;;;30.70;1.00;;;;;;5027532;28;20501;-67
2023/06/08 12:29:06;;;;;;;6.47;4.90;;;30.70;1.00;;;;;;5035489;28;20496;-68
2023/06/08 12:31:33;;;;;;;7.80;4.83;;;30.70;1.00;;;;;;5037655;28;20840;-68
2023/06/08 12:33:59;;;;;;;6.60;4.47;;;30.70;1.00;;;;;;5037454;28;20520;-68
2023/06/08 12:36:26;;;;;;;7.33;4.90;;;30.70;1.00;;;;;;5031709;28;20487;-67
2023/06/08 12:38:55;;;;;;;7.87;4.97;;;30.70;1.00;;;;;;5029354;28;20491;-67
2023/06/08 12:41:22;;;;;;;7.10;4.80;;;30.60;1.00;;;;;;5028227;28;20462;-67
2023/06/08 12:43:50;;;;;;;8.07;5.23;;;30.60;1.00;;;;;;5029777;28;20539;-68
2023/06/08 12:46:19;;;;;;;6.93;4.77;;;30.60;1.00;;;;;;5029028;28;21108;-67
2023/06/08 12:48:47;;;;;;;6.37;4.37;;;30.50;1.00;;;;;;5029518;28;20550;-68
2023/06/08 12:51:14;;;;;;;6.27;4.57;;;30.50;1.00;;;;;;5026471;28;20462;-69
2023/06/08 12:53:41;;;;;;;8.57;5.17;;;30.40;1.00;;;;;;5029327;28;20531;-67
2023/06/08 12:56:09;;;;;;;6.93;5.03;;;30.50;1.00;;;;;;5030810;28;20970;-67